createdAt,value
2023-12-23T00:00:14.570Z,1.80
2023-12-23T00:02:17.553Z,1.92
2023-12-23T00:04:21.662Z,1.80
2023-12-23T00:06:23.402Z,1.92
2023-12-23T00:08:28.056Z,1.50
2023-12-23T00:10:32.451Z,1.52
2023-12-23T00:12:35.222Z,1.40
2023-12-23T00:14:38.478Z,1.70
2023-12-23T00:16:41.134Z,1.50
2023-12-23T00:18:43.928Z,1.83
2023-12-23T00:20:48.472Z,1.60
2023-12-23T00:22:51.208Z,1.33
2023-12-23T00:24:52.841Z,1.40
2023-12-23T00:26:58.352Z,1.67
2023-12-23T00:29:01.022Z,1.77
2023-12-23T00:31:03.603Z,1.50
2023-12-23T00:33:06.846Z,1.67
2023-12-23T00:35:08.861Z,2.00
2023-12-23T00:37:12.873Z,1.80
2023-12-23T00:39:16.255Z,1.67
2023-12-23T00:41:19.368Z,1.98
2023-12-23T00:43:22.038Z,1.42
2023-12-23T00:45:24.741Z,1.85
2023-12-23T00:47:30.163Z,1.60
2023-12-23T00:49:35.046Z,1.40
2023-12-23T00:51:37.887Z,1.42
2023-12-23T00:53:41.008Z,1.60
2023-12-23T00:55:43.555Z,1.60
2023-12-23T00:57:46.215Z,1.67
2023-12-23T00:59:47.864Z,1.60
2023-12-23T01:01:50.644Z,1.70
2023-12-23T01:03:53.394Z,1.80
2023-12-23T01:05:56.370Z,1.88
2023-12-23T01:07:59.383Z,1.92
2023-12-23T01:10:03.708Z,1.50
2023-12-23T01:12:05.911Z,1.90
2023-12-23T01:14:09.606Z,1.60
2023-12-23T01:16:12.334Z,1.67
2023-12-23T01:18:15.053Z,1.85
2023-12-23T01:20:18.015Z,1.67
2023-12-23T01:22:20.878Z,1.52
2023-12-23T01:24:23.508Z,1.65
2023-12-23T01:26:27.517Z,1.80
2023-12-23T01:28:30.115Z,1.88
2023-12-23T01:30:31.804Z,1.52
2023-12-23T01:32:34.527Z,1.50
2023-12-23T01:34:37.435Z,2.13
2023-12-23T01:36:39.112Z,2.03
2023-12-23T01:38:41.858Z,1.90
2023-12-23T01:40:44.529Z,1.90
2023-12-23T01:42:48.805Z,1.70
2023-12-23T01:44:51.422Z,1.83
2023-12-23T01:46:55.916Z,2.00
2023-12-23T01:48:59.531Z,1.55
2023-12-23T01:51:02.189Z,1.83
2023-12-23T01:53:05.030Z,1.60
2023-12-23T01:55:07.177Z,1.77
2023-12-23T01:57:09.917Z,1.60
2023-12-23T01:59:14.039Z,1.75
2023-12-23T02:01:17.374Z,1.55
2023-12-23T02:03:20.120Z,1.60
2023-12-23T02:05:22.751Z,1.60
2023-12-23T02:07:25.555Z,1.80
2023-12-23T02:09:28.247Z,1.58
2023-12-23T02:11:36.955Z,1.60
2023-12-23T02:13:43.177Z,2.00
2023-12-23T02:15:48.825Z,1.60
2023-12-23T02:17:59.488Z,1.45
2023-12-23T02:20:02.294Z,1.42
2023-12-23T02:22:06.348Z,1.33
2023-12-23T02:24:08.077Z,1.45
2023-12-23T02:26:11.235Z,1.50
2023-12-23T02:28:15.517Z,1.63
2023-12-23T02:30:17.712Z,1.50
2023-12-23T02:32:21.683Z,1.23
2023-12-23T02:34:24.534Z,1.67
2023-12-23T02:36:27.255Z,1.33
2023-12-23T02:38:31.359Z,1.20
2023-12-23T02:40:33.054Z,1.58
2023-12-23T02:42:35.706Z,1.35
2023-12-23T02:44:38.300Z,1.30
2023-12-23T02:46:41.074Z,1.60
2023-12-23T02:48:43.813Z,1.40
2023-12-23T02:50:46.518Z,1.30
2023-12-23T02:52:48.537Z,1.27
2023-12-23T02:54:52.585Z,1.05
2023-12-23T02:56:55.179Z,1.30
2023-12-23T02:58:57.876Z,1.25
2023-12-23T03:01:00.548Z,1.40
2023-12-23T03:03:03.184Z,1.20
2023-12-23T03:05:06.329Z,1.20
2023-12-23T03:07:09.492Z,1.20
2023-12-23T03:09:12.354Z,1.30
2023-12-23T03:11:16.512Z,1.20
2023-12-23T03:13:19.305Z,1.10
2023-12-23T03:15:22.061Z,1.20
2023-12-23T03:17:26.621Z,1.13
2023-12-23T03:19:29.278Z,0.90
2023-12-23T03:21:31.904Z,1.25
2023-12-23T03:23:33.532Z,1.17
2023-12-23T03:25:36.240Z,1.25
2023-12-23T03:27:39.267Z,1.10
2023-12-23T03:29:41.885Z,1.08
2023-12-23T03:31:44.572Z,0.93
2023-12-23T03:33:47.371Z,1.00
2023-12-23T03:35:50.053Z,1.33
2023-12-23T03:37:52.649Z,1.33
2023-12-23T03:39:55.314Z,1.10
2023-12-23T03:41:57.902Z,1.05
2023-12-23T03:44:02.054Z,0.95
2023-12-23T03:46:04.811Z,1.20
2023-12-23T03:48:07.872Z,0.85
2023-12-23T03:50:12.213Z,1.08
2023-12-23T03:52:14.874Z,0.98
2023-12-23T03:54:17.484Z,0.80
2023-12-23T03:56:20.175Z,0.80
2023-12-23T03:58:22.248Z,1.00
2023-12-23T04:00:26.737Z,0.90
2023-12-23T04:02:29.320Z,0.80
2023-12-23T04:04:31.934Z,0.90
2023-12-23T04:06:34.628Z,1.00
2023-12-23T04:08:37.333Z,0.82
2023-12-23T04:10:40.073Z,1.10
2023-12-23T04:12:41.704Z,1.10
2023-12-23T04:14:44.384Z,0.88
2023-12-23T04:16:48.443Z,0.80
2023-12-23T04:18:51.201Z,0.88
2023-12-23T04:20:53.872Z,0.90
2023-12-23T04:22:56.881Z,0.88
2023-12-23T04:24:58.646Z,0.88
2023-12-23T04:27:01.416Z,0.70
2023-12-23T04:29:04.090Z,1.00
2023-12-23T04:31:06.788Z,0.90
2023-12-23T04:33:11.787Z,1.05
2023-12-23T04:35:15.425Z,0.85
2023-12-23T04:37:18.136Z,0.80
2023-12-23T04:39:20.704Z,0.93
2023-12-23T04:41:23.551Z,0.90
2023-12-23T04:43:26.326Z,0.82
2023-12-23T04:45:29.070Z,0.70
2023-12-23T04:47:31.722Z,0.85
2023-12-23T04:49:35.854Z,0.70
2023-12-23T04:51:38.530Z,0.70
2023-12-23T04:53:41.176Z,0.63
2023-12-23T04:55:44.320Z,0.90
2023-12-23T04:57:47.009Z,0.70
2023-12-23T04:59:49.644Z,0.55
2023-12-23T05:01:52.443Z,0.82
2023-12-23T05:03:55.090Z,0.70
2023-12-23T05:05:59.211Z,0.70
2023-12-23T05:08:01.888Z,0.68
2023-12-23T05:10:04.829Z,0.68
2023-12-23T05:12:07.641Z,0.70
2023-12-23T05:14:10.487Z,0.60
2023-12-23T05:16:14.052Z,0.57
2023-12-23T05:18:16.727Z,0.55
2023-12-23T05:20:19.758Z,0.68
2023-12-23T05:22:23.991Z,0.70
2023-12-23T05:24:26.587Z,0.70
2023-12-23T05:26:29.186Z,0.70
2023-12-23T05:28:30.757Z,0.63
2023-12-23T05:30:34.052Z,0.70
2023-12-23T05:32:36.746Z,0.63
2023-12-23T05:34:39.543Z,0.70
2023-12-23T05:36:42.185Z,0.50
2023-12-23T05:38:46.230Z,0.85
2023-12-23T05:40:48.884Z,0.65
2023-12-23T05:42:51.785Z,0.60
2023-12-23T05:44:54.581Z,0.80
2023-12-23T05:46:57.144Z,0.70
2023-12-23T05:48:59.901Z,0.80
2023-12-23T05:51:02.582Z,0.60
2023-12-23T05:53:05.533Z,0.65
2023-12-23T05:55:10.293Z,0.80
2023-12-23T05:57:12.004Z,0.63
2023-12-23T05:59:14.782Z,0.73
2023-12-23T06:01:18.428Z,0.65
2023-12-23T06:03:21.206Z,0.60
2023-12-23T06:05:24.029Z,0.75
2023-12-23T06:07:26.701Z,0.57
2023-12-23T06:09:29.342Z,0.93
2023-12-23T06:11:33.312Z,0.73
2023-12-23T06:13:36.003Z,0.65
2023-12-23T06:15:38.940Z,0.90
2023-12-23T06:17:41.637Z,0.90
2023-12-23T06:19:43.312Z,0.60
2023-12-23T06:21:48.050Z,0.55
2023-12-23T06:23:50.781Z,0.70
2023-12-23T06:25:53.428Z,0.70
2023-12-23T06:27:57.476Z,0.98
2023-12-23T06:30:00.127Z,0.65
2023-12-23T06:32:03.419Z,0.70
2023-12-23T06:34:06.382Z,0.85
2023-12-23T06:36:10.440Z,0.70
2023-12-23T06:38:14.857Z,1.20
2023-12-23T06:40:16.706Z,0.85
2023-12-23T06:42:19.781Z,0.80
2023-12-23T06:44:24.009Z,0.75
2023-12-23T06:46:26.605Z,1.00
2023-12-23T06:48:34.006Z,1.00
2023-12-23T06:50:37.333Z,0.70
2023-12-23T06:52:39.983Z,0.75
2023-12-23T06:54:42.624Z,0.82
2023-12-23T06:56:45.197Z,1.00
2023-12-23T06:58:46.922Z,0.80
2023-12-23T07:00:51.023Z,0.70
2023-12-23T07:02:53.780Z,0.95
2023-12-23T07:04:56.540Z,0.70
2023-12-23T07:06:59.349Z,0.70
2023-12-23T07:09:01.973Z,0.80
2023-12-23T07:11:04.868Z,0.80
2023-12-23T07:13:07.493Z,0.88
2023-12-23T07:15:09.729Z,0.70
2023-12-23T07:17:13.999Z,0.77
2023-12-23T07:19:17.553Z,1.00
2023-12-23T07:21:20.307Z,0.82
2023-12-23T07:23:22.982Z,0.95
2023-12-23T07:25:25.812Z,0.60
2023-12-23T07:27:28.442Z,0.70
2023-12-23T07:29:31.109Z,0.90
2023-12-23T07:31:33.793Z,0.80
2023-12-23T07:33:37.867Z,1.02
2023-12-23T07:35:40.783Z,0.90
2023-12-23T07:37:43.469Z,0.70
2023-12-23T07:39:46.164Z,0.75
2023-12-23T07:41:47.920Z,0.85
2023-12-23T07:43:51.190Z,0.77
2023-12-23T07:45:53.851Z,1.08
2023-12-23T07:47:56.550Z,0.82
2023-12-23T07:50:00.817Z,0.90
2023-12-23T07:52:02.616Z,0.60
2023-12-23T07:54:05.693Z,0.70
2023-12-23T07:56:07.753Z,0.80
2023-12-23T07:58:10.456Z,0.80
2023-12-23T08:00:13.624Z,0.65
2023-12-23T08:02:16.323Z,0.70
2023-12-23T08:04:19.041Z,0.68
2023-12-23T08:06:23.081Z,0.68
2023-12-23T08:08:25.925Z,1.05
2023-12-23T08:10:28.545Z,0.80
2023-12-23T08:12:31.240Z,0.75
2023-12-23T08:14:33.779Z,1.08
2023-12-23T08:16:36.398Z,0.82
2023-12-23T08:18:39.069Z,0.90
2023-12-23T08:20:41.661Z,0.60
2023-12-23T08:22:45.965Z,0.60
2023-12-23T08:24:48.631Z,0.73
2023-12-23T08:26:51.389Z,0.85
2023-12-23T08:28:54.044Z,0.75
2023-12-23T08:30:56.912Z,0.77
2023-12-23T08:32:59.732Z,0.70
2023-12-23T08:35:02.491Z,0.60
2023-12-23T08:37:05.193Z,0.80
2023-12-23T08:39:09.915Z,1.00
2023-12-23T08:41:12.752Z,0.70
2023-12-23T08:43:16.583Z,0.77
2023-12-23T08:45:19.245Z,1.08
2023-12-23T08:47:21.904Z,0.82
2023-12-23T08:49:24.589Z,0.70
2023-12-23T08:51:30.748Z,0.70
2023-12-23T08:53:33.362Z,0.70
2023-12-23T08:55:37.353Z,1.08
2023-12-23T08:57:40.209Z,0.70
2023-12-23T08:59:42.830Z,0.65
2023-12-23T09:01:45.618Z,0.70
2023-12-23T09:03:48.647Z,0.90
2023-12-23T09:05:51.514Z,1.02
2023-12-23T09:07:53.530Z,1.00
2023-12-23T09:09:56.444Z,0.73
2023-12-23T09:12:00.339Z,0.70
2023-12-23T09:14:03.685Z,0.88
2023-12-23T09:16:05.949Z,0.70
2023-12-23T09:18:09.128Z,0.93
2023-12-23T09:20:12.664Z,0.70
2023-12-23T09:22:14.356Z,0.73
2023-12-23T09:24:16.901Z,0.75
2023-12-23T09:26:19.522Z,1.10
2023-12-23T09:28:22.530Z,0.90
2023-12-23T09:30:25.173Z,0.70
2023-12-23T09:32:28.014Z,0.85
2023-12-23T09:34:30.643Z,0.80
2023-12-23T09:36:33.393Z,1.00
2023-12-23T09:38:36.098Z,0.88
2023-12-23T09:40:39.152Z,1.10
2023-12-23T09:42:42.522Z,1.20
2023-12-23T09:44:46.593Z,0.70
2023-12-23T09:46:49.368Z,0.77
2023-12-23T09:48:52.236Z,0.85
2023-12-23T09:50:54.842Z,0.98
2023-12-23T09:53:00.420Z,0.93
2023-12-23T09:55:06.380Z,1.05
2023-12-23T09:57:09.849Z,1.00
2023-12-23T09:59:12.517Z,1.23
2023-12-23T10:01:16.683Z,1.20
2023-12-23T10:03:22.484Z,1.13
2023-12-23T10:05:27.937Z,1.10
2023-12-23T10:07:29.705Z,0.98
2023-12-23T10:09:33.334Z,1.10
2023-12-23T10:11:35.987Z,0.95
2023-12-23T10:13:38.927Z,1.63
2023-12-23T10:15:42.384Z,1.55
2023-12-23T10:17:46.597Z,1.23
2023-12-23T10:19:49.460Z,1.30
2023-12-23T10:21:52.263Z,1.77
2023-12-23T10:23:53.969Z,1.60
2023-12-23T10:25:56.663Z,1.90
2023-12-23T10:27:59.771Z,2.63
2023-12-23T10:30:04.631Z,4.28
2023-12-23T10:32:08.944Z,4.78
2023-12-23T10:34:13.939Z,4.75
2023-12-23T10:36:18.238Z,4.45
2023-12-23T10:38:21.700Z,5.32
2023-12-23T10:40:29.087Z,4.65
2023-12-23T10:42:32.503Z,4.28
2023-12-23T10:44:35.175Z,4.07
2023-12-23T10:46:37.272Z,3.70
2023-12-23T10:48:40.339Z,3.50
2023-12-23T10:50:44.617Z,3.13
2023-12-23T10:52:47.991Z,2.92
2023-12-23T10:54:50.978Z,3.17
2023-12-23T10:56:54.797Z,2.90
2023-12-23T10:58:57.875Z,2.75
2023-12-23T11:01:00.777Z,2.97
2023-12-23T11:03:04.761Z,4.28
2023-12-23T11:05:09.037Z,3.17
2023-12-23T11:07:15.649Z,6.65
2023-12-23T11:09:18.996Z,3.67
2023-12-23T11:11:21.316Z,3.97
2023-12-23T11:13:23.932Z,3.75
2023-12-23T11:15:26.604Z,4.80
2023-12-23T11:17:29.138Z,3.80
2023-12-23T11:19:31.796Z,4.10
2023-12-23T11:21:36.086Z,3.25
2023-12-23T11:23:39.296Z,3.53
2023-12-23T11:25:43.751Z,3.65
2023-12-23T11:27:48.229Z,2.67
2023-12-23T11:29:49.870Z,3.30
2023-12-23T11:36:03.397Z,2.25
2023-12-23T11:38:06.804Z,1.95
2023-12-23T11:40:11.096Z,2.08
2023-12-23T11:42:14.968Z,1.80
2023-12-23T11:44:18.060Z,1.88
2023-12-23T11:46:20.245Z,2.15
2023-12-23T11:48:23.759Z,1.55
2023-12-23T11:50:27.779Z,1.67
2023-12-23T11:52:30.740Z,1.70
2023-12-23T11:54:33.397Z,1.75
2023-12-23T11:56:37.529Z,1.40
2023-12-23T11:58:39.257Z,1.58
2023-12-23T12:00:43.479Z,1.38
2023-12-23T12:02:46.380Z,1.40
2023-12-23T12:04:49.011Z,1.52
2023-12-23T12:06:51.700Z,1.45
2023-12-23T12:08:55.145Z,1.23
2023-12-23T12:11:02.034Z,2.00
2023-12-23T12:13:08.594Z,1.38
2023-12-23T12:15:11.796Z,1.67
2023-12-23T12:17:14.185Z,1.90
2023-12-23T12:19:18.102Z,2.00
2023-12-23T12:21:21.981Z,2.53
2023-12-23T12:23:24.748Z,1.75
2023-12-23T12:25:29.702Z,1.73
2023-12-23T12:27:32.314Z,1.38
2023-12-23T12:29:36.475Z,1.52
2023-12-23T12:31:39.123Z,1.60
2023-12-23T12:33:42.252Z,1.40
2023-12-23T12:35:44.961Z,1.25
2023-12-23T12:37:47.614Z,1.45
2023-12-23T12:39:50.271Z,1.08
2023-12-23T12:41:53.714Z,1.27
2023-12-23T12:43:57.052Z,1.10
2023-12-23T12:46:01.186Z,1.30
2023-12-23T12:48:06.714Z,1.30
2023-12-23T12:50:10.039Z,1.40
2023-12-23T12:52:13.585Z,1.50
2023-12-23T12:54:16.606Z,1.17
2023-12-23T12:56:22.738Z,1.30
2023-12-23T12:58:25.899Z,1.00
2023-12-23T13:00:27.778Z,1.17
2023-12-23T13:02:31.916Z,1.23
2023-12-23T13:04:36.162Z,1.02
2023-12-23T13:06:40.160Z,0.82
2023-12-23T13:08:43.512Z,0.90
2023-12-23T13:10:48.205Z,1.05
2023-12-23T13:12:51.486Z,1.00
2023-12-23T13:14:54.441Z,0.95
2023-12-23T13:16:57.066Z,0.90
2023-12-23T13:19:01.666Z,0.88
2023-12-23T13:21:03.605Z,0.90
2023-12-23T13:23:06.642Z,0.90
2023-12-23T13:25:10.554Z,0.60
2023-12-23T13:27:13.485Z,0.80
2023-12-23T13:29:18.093Z,0.73
2023-12-23T13:31:20.888Z,0.90
2023-12-23T13:33:23.721Z,1.00
2023-12-23T13:35:28.835Z,0.90
2023-12-23T13:37:32.090Z,0.80
2023-12-23T13:39:34.830Z,1.15
2023-12-23T13:41:36.954Z,1.00
2023-12-23T13:43:39.641Z,0.80
2023-12-23T13:45:42.253Z,0.80
2023-12-23T13:47:45.052Z,1.00
2023-12-23T13:49:46.876Z,0.73
2023-12-23T13:51:50.947Z,0.80
2023-12-23T13:53:53.662Z,0.90
2023-12-23T13:55:56.402Z,0.90
2023-12-23T13:57:59.066Z,1.65
2023-12-23T14:00:01.798Z,0.90
2023-12-23T14:02:05.527Z,1.10
2023-12-23T14:04:08.285Z,1.52
2023-12-23T14:06:11.024Z,0.98
2023-12-23T14:08:15.169Z,0.95
2023-12-23T14:10:17.814Z,0.95
2023-12-23T14:12:20.370Z,0.90
2023-12-23T14:14:23.059Z,0.85
2023-12-23T14:16:25.692Z,0.98
2023-12-23T14:18:28.431Z,1.10
2023-12-23T14:20:31.214Z,0.73
2023-12-23T14:22:33.882Z,0.65
2023-12-23T14:24:36.890Z,1.00
2023-12-23T14:26:39.580Z,1.00
2023-12-23T14:28:42.357Z,0.80
2023-12-23T14:30:45.407Z,1.05
2023-12-23T14:32:48.148Z,1.02
2023-12-23T14:34:50.883Z,0.68
2023-12-23T14:36:53.902Z,0.85
2023-12-23T14:38:56.665Z,0.80
2023-12-23T14:41:01.878Z,0.70
2023-12-23T14:43:04.626Z,0.70
2023-12-23T14:45:06.761Z,0.80
2023-12-23T14:47:09.397Z,0.93
2023-12-23T14:49:13.181Z,0.77
2023-12-23T14:51:15.948Z,0.85
2023-12-23T14:53:18.677Z,0.90
2023-12-23T14:55:21.254Z,0.80
2023-12-23T14:57:25.229Z,0.85
2023-12-23T14:59:30.594Z,0.70
2023-12-23T15:01:36.568Z,0.70
2023-12-23T15:03:39.565Z,0.68
2023-12-23T15:05:42.203Z,0.50
2023-12-23T15:07:44.805Z,0.90
2023-12-23T15:09:48.598Z,0.65
2023-12-23T15:11:51.585Z,0.82
2023-12-23T15:13:58.661Z,0.70
2023-12-23T15:16:01.375Z,0.73
2023-12-23T15:18:04.780Z,0.70
2023-12-23T15:20:08.220Z,0.77
2023-12-23T15:22:10.815Z,0.80
2023-12-23T15:24:13.446Z,0.70
2023-12-23T15:26:16.384Z,1.55
2023-12-23T15:28:18.114Z,1.00
2023-12-23T15:30:22.197Z,1.20
2023-12-23T15:32:25.073Z,0.80
2023-12-23T15:34:27.855Z,1.45
2023-12-23T15:36:30.495Z,1.55
2023-12-23T15:38:33.135Z,1.30
2023-12-23T15:40:35.758Z,1.10
2023-12-23T15:42:38.366Z,1.02
2023-12-23T15:44:40.932Z,1.27
2023-12-23T15:46:43.984Z,1.17
2023-12-23T15:48:46.768Z,0.93
2023-12-23T15:50:49.635Z,1.10
2023-12-23T15:52:52.595Z,1.00
2023-12-23T15:54:55.522Z,1.10
2023-12-23T15:56:58.178Z,1.00
2023-12-23T15:59:00.854Z,0.98
2023-12-23T16:01:02.723Z,0.90
2023-12-23T16:03:07.056Z,0.80
2023-12-23T16:05:10.302Z,0.80
2023-12-23T16:07:13.423Z,1.02
2023-12-23T16:09:16.392Z,0.80
2023-12-23T16:11:19.216Z,0.80
2023-12-23T16:13:22.358Z,0.90
2023-12-23T16:15:25.065Z,0.88
2023-12-23T16:17:27.750Z,1.25
2023-12-23T16:19:32.624Z,1.00
2023-12-23T16:21:36.896Z,0.80
2023-12-23T16:23:38.644Z,1.10
2023-12-23T16:25:41.562Z,0.98
2023-12-23T16:27:44.181Z,0.90
2023-12-23T16:29:47.629Z,1.13
2023-12-23T16:31:50.343Z,1.00
2023-12-23T16:33:54.443Z,0.90
2023-12-23T16:35:58.652Z,0.95
2023-12-23T16:38:01.364Z,1.20
2023-12-23T16:40:04.783Z,1.10
2023-12-23T16:42:06.655Z,1.00
2023-12-23T16:44:09.333Z,0.98
2023-12-23T16:46:11.990Z,1.00
2023-12-23T16:52:25.352Z,1.20
2023-12-23T16:54:28.015Z,1.00
2023-12-23T16:56:30.670Z,1.15
2023-12-23T16:58:32.396Z,1.00
2023-12-23T17:00:34.984Z,1.00
2023-12-23T17:02:37.793Z,1.17
2023-12-23T17:04:40.604Z,1.20
2023-12-23T17:06:43.550Z,1.05
2023-12-23T17:08:47.562Z,1.08
2023-12-23T17:10:50.215Z,1.25
2023-12-23T17:12:53.089Z,1.15
2023-12-23T17:14:57.755Z,0.85
2023-12-23T17:17:02.657Z,0.93
2023-12-23T17:19:06.698Z,0.90
2023-12-23T17:21:11.878Z,1.50
2023-12-23T17:23:14.544Z,1.00
2023-12-23T17:25:18.526Z,1.00
2023-12-23T17:27:21.112Z,1.10
2023-12-23T17:29:23.934Z,1.42
2023-12-23T17:31:26.586Z,1.00
2023-12-23T17:33:29.478Z,1.30
2023-12-23T17:35:32.233Z,1.10
2023-12-23T17:37:34.875Z,1.35
2023-12-23T17:39:37.546Z,1.10
2023-12-23T17:41:41.584Z,0.93
2023-12-23T17:43:44.207Z,1.48
2023-12-23T17:45:46.803Z,1.42
2023-12-23T17:47:50.906Z,1.20
2023-12-23T17:49:53.912Z,0.98
2023-12-23T17:51:55.684Z,1.33
2023-12-23T17:53:58.343Z,1.20
2023-12-23T17:56:05.501Z,1.30
2023-12-23T17:58:09.568Z,1.33
2023-12-23T18:00:12.654Z,0.90
2023-12-23T18:02:14.352Z,1.70
2023-12-23T18:04:16.954Z,2.92
2023-12-23T18:06:18.729Z,1.60
2023-12-23T18:08:21.604Z,1.75
2023-12-23T18:10:24.246Z,1.98
2023-12-23T18:12:26.875Z,1.92
2023-12-23T18:14:30.927Z,2.25
2023-12-23T18:16:33.613Z,1.88
2023-12-23T18:18:36.325Z,1.70
2023-12-23T18:20:39.103Z,1.60
2023-12-23T18:22:44.115Z,2.03
2023-12-23T18:24:46.729Z,1.30
2023-12-23T18:26:49.452Z,1.83
2023-12-23T18:28:52.089Z,1.52
2023-12-23T18:30:55.315Z,1.30
2023-12-23T18:32:59.340Z,1.30
2023-12-23T18:35:02.478Z,1.20
2023-12-23T18:37:05.346Z,1.48
2023-12-23T18:39:07.913Z,1.30
2023-12-23T18:41:10.527Z,1.55
2023-12-23T18:43:13.782Z,1.05
2023-12-23T18:45:16.617Z,1.35
2023-12-23T18:47:19.679Z,1.20
2023-12-23T18:49:22.277Z,1.40
2023-12-23T18:51:24.872Z,1.30
2023-12-23T18:53:27.882Z,1.30
2023-12-23T18:55:30.657Z,1.10
2023-12-23T18:57:33.304Z,1.27
2023-12-23T18:59:35.977Z,1.20
2023-12-23T19:01:38.821Z,1.13
2023-12-23T19:03:42.937Z,1.25
2023-12-23T19:05:45.672Z,1.00
2023-12-23T19:07:48.388Z,1.17
2023-12-23T19:09:50.981Z,1.02
2023-12-23T19:11:54.117Z,1.20
2023-12-23T19:13:56.763Z,1.10
2023-12-23T19:15:59.360Z,1.30
2023-12-23T19:18:01.312Z,1.20
2023-12-23T19:20:05.976Z,1.08
2023-12-23T19:22:07.684Z,1.60
2023-12-23T19:24:10.399Z,1.17
2023-12-23T19:26:13.122Z,1.48
2023-12-23T19:28:17.983Z,1.23
2023-12-23T19:30:20.660Z,1.20
2023-12-23T19:32:23.408Z,1.10
2023-12-23T19:34:26.626Z,1.48
2023-12-23T19:36:31.481Z,1.30
2023-12-23T19:38:34.264Z,1.73
2023-12-23T19:40:37.090Z,1.30
2023-12-23T19:42:39.066Z,1.70
2023-12-23T19:44:41.765Z,1.40
2023-12-23T19:46:43.434Z,1.67
2023-12-23T19:48:46.116Z,1.40
2023-12-23T19:50:48.853Z,1.80
2023-12-23T19:52:54.522Z,1.75
2023-12-23T19:54:57.606Z,1.33
2023-12-23T19:57:00.480Z,1.13
2023-12-23T19:59:04.941Z,1.60
2023-12-23T20:01:09.177Z,1.45
2023-12-23T20:03:11.929Z,1.42
2023-12-23T20:05:14.701Z,1.60
2023-12-23T20:07:17.390Z,1.40
2023-12-23T20:09:21.416Z,1.40
2023-12-23T20:11:24.355Z,1.35
2023-12-23T20:13:26.990Z,1.40
2023-12-23T20:15:28.627Z,1.20
2023-12-23T20:17:31.458Z,1.25
2023-12-23T20:19:34.208Z,1.38
2023-12-23T20:21:36.841Z,1.40
2023-12-23T20:23:38.630Z,1.50
2023-12-23T20:25:43.106Z,1.25
2023-12-23T20:27:46.024Z,1.40
2023-12-23T20:29:48.777Z,1.27
2023-12-23T20:31:50.431Z,1.35
2023-12-23T20:33:53.202Z,1.30
2023-12-23T20:35:55.508Z,0.95
2023-12-23T20:37:58.138Z,1.42
2023-12-23T20:40:00.863Z,1.23
2023-12-23T20:42:04.631Z,1.70
2023-12-23T20:44:08.076Z,1.30
2023-12-23T20:46:11.909Z,1.17
2023-12-23T20:48:14.800Z,1.20
2023-12-23T20:50:17.514Z,1.20
2023-12-23T20:52:19.179Z,0.98
2023-12-23T20:54:22.099Z,0.98
2023-12-23T20:56:25.802Z,1.40
2023-12-23T20:58:32.435Z,0.98
2023-12-23T21:00:36.514Z,0.90
2023-12-23T21:02:38.218Z,0.80
2023-12-23T21:04:41.278Z,1.23
2023-12-23T21:06:44.213Z,0.80
2023-12-23T21:17:34.733Z,0.80
2023-12-23T21:19:38.314Z,1.10
2023-12-23T21:21:42.458Z,6.80
2023-12-23T21:24:10.772Z,1.42
2023-12-23T21:26:20.610Z,1.35
2023-12-23T21:28:26.154Z,1.00
2023-12-23T21:30:31.606Z,0.80
2023-12-23T21:39:49.196Z,0.70
2023-12-23T21:41:52.632Z,0.70
2023-12-23T21:43:55.317Z,0.98
2023-12-23T21:45:59.354Z,0.65
2023-12-23T21:48:02.105Z,0.90
2023-12-23T21:50:05.270Z,0.73
2023-12-23T21:52:07.958Z,0.88
2023-12-23T21:59:14.503Z,0.80
2023-12-23T22:01:18.913Z,0.65
2023-12-23T22:03:21.633Z,0.70
2023-12-23T22:05:24.848Z,0.70
2023-12-23T22:07:27.858Z,0.60
2023-12-23T22:09:31.155Z,0.70
2023-12-23T22:11:34.215Z,0.60
2023-12-23T22:13:36.334Z,0.57
2023-12-23T22:15:39.196Z,0.40
2023-12-23T22:17:42.372Z,0.90
2023-12-23T22:19:45.117Z,0.65
2023-12-23T22:21:47.754Z,0.70
2023-12-23T22:23:50.401Z,0.70
2023-12-23T22:25:53.047Z,0.60
2023-12-23T22:27:55.769Z,0.70
2023-12-23T22:29:57.460Z,0.55
2023-12-23T22:32:00.507Z,0.60
2023-12-23T22:34:05.564Z,0.63
2023-12-23T22:36:10.557Z,0.73
2023-12-23T22:38:13.319Z,0.93
2023-12-23T22:40:18.035Z,0.60
2023-12-23T22:42:20.680Z,0.70
2023-12-23T22:44:24.621Z,0.45
2023-12-23T22:46:27.379Z,0.50
2023-12-23T22:48:29.212Z,0.50
2023-12-23T22:50:33.400Z,0.50
2023-12-23T22:52:35.119Z,0.52
2023-12-23T22:54:38.310Z,0.43
2023-12-23T22:56:41.024Z,0.60
2023-12-23T22:58:43.881Z,0.38
2023-12-23T23:00:46.809Z,0.50
2023-12-23T23:10:02.424Z,0.75
2023-12-23T23:12:07.048Z,0.50
2023-12-23T23:14:09.518Z,0.50
2023-12-23T23:16:12.191Z,0.50
2023-12-23T23:18:15.423Z,0.52
2023-12-23T23:20:17.897Z,0.50
2023-12-23T23:22:20.680Z,0.50
2023-12-23T23:24:23.319Z,0.70
2023-12-23T23:26:26.527Z,0.50
2023-12-23T23:28:29.253Z,0.52
2023-12-23T23:30:31.945Z,0.75
2023-12-23T23:32:34.742Z,0.50
2023-12-23T23:34:36.496Z,0.70
2023-12-23T23:36:42.326Z,0.50
2023-12-23T23:38:45.070Z,0.80
2023-12-23T23:40:49.988Z,0.60
2023-12-23T23:42:54.240Z,0.80
2023-12-23T23:44:56.123Z,0.80
2023-12-23T23:46:58.738Z,0.60
2023-12-23T23:49:00.550Z,0.70
2023-12-23T23:51:03.183Z,0.80
2023-12-23T23:53:05.958Z,0.70
2023-12-23T23:55:08.990Z,0.70
2023-12-23T23:57:11.630Z,0.60
2023-12-23T23:59:14.650Z,0.77
